createdAt,value
2019-05-05T00:00:51.414Z,0
2019-05-05T00:03:40.178Z,0
2019-05-05T00:06:31.340Z,0
2019-05-05T00:09:31.127Z,0
2019-05-05T00:13:14.933Z,0
2019-05-05T00:16:19.386Z,0
2019-05-05T00:18:34.663Z,0
2019-05-05T00:21:30.641Z,0
2019-05-05T00:24:31.127Z,0
2019-05-05T00:27:30.784Z,0
2019-05-05T00:30:31.347Z,0
2019-05-05T00:33:34.343Z,0
2019-05-05T00:36:31.356Z,0
2019-05-05T00:39:31.100Z,0
2019-05-05T00:42:30.945Z,0
2019-05-05T00:45:31.658Z,0
2019-05-05T00:48:37.580Z,0
2019-05-05T00:51:37.130Z,0
2019-05-05T00:54:30.756Z,0
2019-05-05T00:57:30.499Z,0
2019-05-05T01:00:48.187Z,0
2019-05-05T01:03:32.317Z,0
2019-05-05T01:06:34.549Z,0
2019-05-05T01:09:36.768Z,0
2019-05-05T01:12:31.743Z,0
2019-05-05T01:15:31.488Z,0
2019-05-05T01:18:31.339Z,0
2019-05-05T01:21:42.326Z,0
2019-05-05T01:24:36.562Z,0
2019-05-05T01:27:37.086Z,0
2019-05-05T01:30:35.074Z,0
2019-05-05T01:33:39.788Z,0
2019-05-05T01:36:30.362Z,0
2019-05-05T01:39:48.606Z,0
2019-05-05T01:42:36.169Z,0
2019-05-05T01:45:31.001Z,0
2019-05-05T01:48:31.562Z,0
2019-05-05T01:51:31.422Z,0
2019-05-05T01:54:30.898Z,0
2019-05-05T01:57:30.768Z,0
2019-05-05T02:00:31.240Z,0
2019-05-05T02:03:30.869Z,0
2019-05-05T02:06:30.386Z,0
2019-05-05T02:09:31.411Z,0
2019-05-05T02:12:32.035Z,0
2019-05-05T02:15:30.886Z,0
2019-05-05T02:18:30.430Z,0
2019-05-05T02:21:31.234Z,0
2019-05-05T02:24:31.050Z,0
2019-05-05T02:27:30.819Z,0
2019-05-05T02:30:39.861Z,0
2019-05-05T02:33:31.171Z,0
2019-05-05T02:36:37.907Z,0
2019-05-05T02:39:53.095Z,0
2019-05-05T02:42:31.863Z,0
2019-05-05T02:45:51.581Z,0
2019-05-05T02:48:35.516Z,0
2019-05-05T02:51:35.469Z,0
2019-05-05T02:57:32.057Z,0
2019-05-05T03:01:19.175Z,0
2019-05-05T03:03:31.052Z,0
2019-05-05T03:06:30.982Z,0
2019-05-05T03:09:29.856Z,0
2019-05-05T03:12:36.957Z,0
2019-05-05T03:15:57.451Z,0
2019-05-05T03:18:33.742Z,0
2019-05-05T03:21:29.839Z,0
2019-05-05T03:24:31.660Z,1
2019-05-05T03:27:31.337Z,1
2019-05-05T03:30:31.114Z,2
2019-05-05T03:33:35.002Z,3
2019-05-05T03:36:31.263Z,6
2019-05-05T03:39:30.351Z,9
2019-05-05T03:42:46.602Z,14
2019-05-05T03:45:39.155Z,22
2019-05-05T03:48:31.113Z,33
2019-05-05T03:51:36.905Z,48
2019-05-05T03:54:31.811Z,68
2019-05-05T03:57:30.756Z,93
2019-05-05T04:01:39.061Z,127
2019-05-05T04:03:31.144Z,187
2019-05-05T04:06:47.039Z,217
2019-05-05T04:09:30.334Z,280
2019-05-05T04:12:31.838Z,341
2019-05-05T04:15:31.154Z,417
2019-05-05T04:18:34.194Z,497
2019-05-05T04:21:36.936Z,588
2019-05-05T04:24:36.541Z,688
2019-05-05T04:27:30.550Z,789
2019-05-05T04:30:31.315Z,907
2019-05-05T04:33:36.506Z,1023
2019-05-05T04:36:31.293Z,1157
2019-05-05T04:42:33.682Z,1458
2019-05-05T04:45:35.571Z,1673
2019-05-05T04:48:46.221Z,1863
2019-05-05T04:51:53.762Z,2203
2019-05-05T04:54:37.437Z,2759
2019-05-05T04:57:31.000Z,3316
2019-05-05T05:00:31.197Z,3822
2019-05-05T05:03:58.140Z,4549
2019-05-05T05:06:37.307Z,6340
2019-05-05T05:09:30.685Z,9440
2019-05-05T05:12:34.153Z,11982
2019-05-05T05:15:31.323Z,11730
2019-05-05T05:18:31.198Z,12421
2019-05-05T05:21:36.659Z,13509
2019-05-05T05:24:38.050Z,13738
2019-05-05T05:27:30.765Z,14317
2019-05-05T05:30:31.485Z,15029
2019-05-05T05:33:34.282Z,15410
2019-05-05T05:36:31.404Z,15185
2019-05-05T05:39:44.115Z,15625
2019-05-05T05:42:31.112Z,17942
2019-05-05T05:45:43.554Z,19032
2019-05-05T05:48:36.703Z,17724
2019-05-05T05:51:36.559Z,16461
2019-05-05T05:54:31.454Z,19397
2019-05-05T05:57:31.334Z,16520
2019-05-05T06:03:30.829Z,24635
2019-05-05T06:06:30.359Z,26682
2019-05-05T06:09:30.399Z,30158
2019-05-05T06:12:31.167Z,27054
2019-05-05T06:15:33.828Z,27704
2019-05-05T06:18:31.073Z,31324
2019-05-05T06:21:30.903Z,29162
2019-05-05T06:24:30.614Z,32716
2019-05-05T06:27:31.425Z,29950
2019-05-05T06:30:33.490Z,30309
2019-05-05T06:33:31.885Z,30357
2019-05-05T06:36:30.432Z,54612
2019-05-05T06:39:31.093Z,36078
2019-05-05T06:44:44.366Z,46926
2019-05-05T06:45:37.887Z,51489
2019-05-05T06:48:30.569Z,52736
2019-05-05T06:51:36.514Z,54612
2019-05-05T06:54:31.267Z,46771
2019-05-05T06:57:30.737Z,40464
2019-05-05T07:00:31.495Z,39940
2019-05-05T07:03:33.466Z,52502
2019-05-05T07:06:31.896Z,43042
2019-05-05T07:09:30.819Z,37344
2019-05-05T07:12:30.443Z,39866
2019-05-05T07:15:31.125Z,26494
2019-05-05T07:18:31.031Z,49382
2019-05-05T07:21:30.720Z,54612
2019-05-05T07:24:31.511Z,51460
2019-05-05T07:27:31.213Z,54612
2019-05-05T07:30:36.028Z,49922
2019-05-05T07:33:30.792Z,41787
2019-05-05T07:36:44.473Z,24036
2019-05-05T07:39:31.559Z,29845
2019-05-05T07:42:33.421Z,27411
2019-05-05T07:45:38.886Z,13354
2019-05-05T07:48:30.655Z,17697
2019-05-05T07:51:33.438Z,15393
2019-05-05T07:54:36.776Z,11972
2019-05-05T07:57:31.366Z,9721
2019-05-05T08:00:31.287Z,10721
2019-05-05T08:03:31.186Z,5429
2019-05-05T08:06:30.980Z,4453
2019-05-05T08:09:30.671Z,5285
2019-05-05T08:12:31.351Z,5891
2019-05-05T08:15:36.772Z,6248
2019-05-05T08:19:06.491Z,5531
2019-05-05T08:21:31.519Z,8436
2019-05-05T08:28:34.229Z,7145
2019-05-05T08:30:37.548Z,10122
2019-05-05T08:33:33.473Z,8674
2019-05-05T08:36:31.487Z,7151
2019-05-05T08:39:34.334Z,7681
2019-05-05T08:42:31.436Z,10644
2019-05-05T08:45:31.187Z,14968
2019-05-05T08:48:30.565Z,18898
2019-05-05T08:51:31.332Z,25562
2019-05-05T08:54:34.390Z,32515
2019-05-05T08:57:31.651Z,54612
2019-05-05T09:00:33.840Z,17191
2019-05-05T09:03:30.245Z,11736
2019-05-05T09:06:31.309Z,9373
2019-05-05T09:09:31.138Z,7275
2019-05-05T09:12:31.183Z,30721
2019-05-05T09:15:33.604Z,29647
2019-05-05T09:18:30.692Z,52642
2019-05-05T09:21:31.518Z,15124
2019-05-05T09:24:38.725Z,47567
2019-05-05T09:28:14.783Z,15748
2019-05-05T09:30:40.018Z,9794
2019-05-05T09:33:36.163Z,6770
2019-05-05T09:36:31.698Z,18424
2019-05-05T09:39:31.860Z,54612
2019-05-05T09:42:30.808Z,14263
2019-05-05T09:45:30.657Z,12305
2019-05-05T09:48:33.563Z,18027
2019-05-05T09:51:31.409Z,54612
2019-05-05T09:54:34.565Z,29215
2019-05-05T09:57:31.526Z,54612
2019-05-05T10:00:33.645Z,54612
2019-05-05T10:03:31.726Z,54612
2019-05-05T10:06:33.689Z,26366
2019-05-05T10:09:30.714Z,16583
2019-05-05T10:12:33.719Z,11139
2019-05-05T10:15:30.701Z,54612
2019-05-05T10:18:30.620Z,54612
2019-05-05T10:21:33.965Z,54612
2019-05-05T10:24:56.813Z,54612
2019-05-05T10:27:47.903Z,13177
2019-05-05T10:30:31.109Z,11229
2019-05-05T10:33:31.070Z,14017
2019-05-05T10:36:31.419Z,15792
2019-05-05T10:39:37.849Z,12895
2019-05-05T10:42:56.496Z,7467
2019-05-05T10:45:31.472Z,7741
2019-05-05T10:48:31.501Z,54612
2019-05-05T10:51:31.631Z,17803
2019-05-05T10:54:46.743Z,17179
2019-05-05T10:57:35.932Z,15551
2019-05-05T11:00:56.980Z,16288
2019-05-05T11:03:30.973Z,21753
2019-05-05T11:06:30.695Z,54612
2019-05-05T11:09:33.743Z,15718
2019-05-05T11:12:30.928Z,54612
2019-05-05T11:15:30.663Z,42354
2019-05-05T11:18:34.345Z,8896
2019-05-05T11:21:31.543Z,5150
2019-05-05T11:24:31.469Z,4730
2019-05-05T11:27:31.350Z,5495
2019-05-05T11:30:39.777Z,7011
2019-05-05T11:33:43.581Z,10385
2019-05-05T11:36:54.275Z,15748
2019-05-05T11:39:31.260Z,13678
2019-05-05T11:42:31.732Z,10107
2019-05-05T11:45:31.596Z,7615
2019-05-05T11:48:31.718Z,11012
2019-05-05T11:51:36.667Z,15461
2019-05-05T11:54:31.431Z,12250
2019-05-05T11:57:31.465Z,11741
2019-05-05T12:00:31.641Z,14467
2019-05-05T12:03:33.778Z,17291
2019-05-05T12:06:31.068Z,12972
2019-05-05T12:09:39.600Z,12678
2019-05-05T12:12:33.574Z,10555
2019-05-05T12:15:33.662Z,10083
2019-05-05T12:18:34.051Z,9751
2019-05-05T12:21:31.203Z,10172
2019-05-05T12:24:36.255Z,11296
2019-05-05T12:27:39.106Z,11734
2019-05-05T12:30:31.175Z,16335
2019-05-05T12:33:31.151Z,12359
2019-05-05T12:36:31.272Z,8650
2019-05-05T12:39:30.984Z,11019
2019-05-05T12:42:31.156Z,12915
2019-05-05T12:45:36.933Z,12856
2019-05-05T12:48:36.911Z,11538
2019-05-05T12:51:30.992Z,14778
2019-05-05T12:54:30.876Z,14402
2019-05-05T12:57:35.863Z,13772
2019-05-05T13:00:31.554Z,8642
2019-05-05T13:03:31.759Z,9574
2019-05-05T13:09:33.408Z,10934
2019-05-05T13:12:31.737Z,10192
2019-05-05T13:15:33.789Z,8808
2019-05-05T13:18:31.061Z,10058
2019-05-05T13:21:51.134Z,10880
2019-05-05T13:24:54.033Z,8408
2019-05-05T13:27:38.920Z,6184
2019-05-05T13:30:30.824Z,4915
2019-05-05T13:33:30.723Z,5079
2019-05-05T13:36:33.442Z,5752
2019-05-05T13:39:33.900Z,6732
2019-05-05T13:42:31.019Z,8023
2019-05-05T13:45:43.597Z,9322
2019-05-05T13:48:33.367Z,8852
2019-05-05T13:51:30.844Z,7331
2019-05-05T13:54:30.887Z,5655
2019-05-05T13:57:30.823Z,4376
2019-05-05T14:00:30.864Z,3762
2019-05-05T14:03:31.029Z,4268
2019-05-05T14:06:30.984Z,5371
2019-05-05T14:09:31.024Z,6224
2019-05-05T14:12:32.044Z,6831
2019-05-05T14:15:30.849Z,6918
2019-05-05T14:18:30.955Z,7452
2019-05-05T14:21:30.798Z,7424
2019-05-05T14:24:41.066Z,6332
2019-05-05T14:27:30.863Z,4538
2019-05-05T14:30:54.149Z,3359
2019-05-05T14:33:34.143Z,3211
2019-05-05T14:36:38.416Z,3446
2019-05-05T14:39:31.357Z,3251
2019-05-05T14:42:31.289Z,3127
2019-05-05T14:45:31.176Z,3401
2019-05-05T14:48:31.161Z,4538
2019-05-05T14:51:30.651Z,5397
2019-05-05T14:54:31.736Z,5046
2019-05-05T14:57:36.006Z,5339
2019-05-05T15:00:33.659Z,6162
2019-05-05T15:03:30.562Z,6067
2019-05-05T15:06:43.973Z,5752
2019-05-05T15:09:40.882Z,5538
2019-05-05T15:12:36.518Z,4757
2019-05-05T15:15:31.676Z,5053
2019-05-05T15:18:31.745Z,4053
2019-05-05T15:21:33.871Z,4062
2019-05-05T15:24:30.639Z,5644
2019-05-05T15:27:31.269Z,6035
2019-05-05T15:30:31.026Z,4844
2019-05-05T15:33:30.721Z,3572
2019-05-05T15:36:33.455Z,2684
2019-05-05T15:39:33.523Z,1969
2019-05-05T15:42:33.390Z,1739
2019-05-05T15:45:31.268Z,1484
2019-05-05T15:48:31.031Z,1328
2019-05-05T15:51:30.679Z,1326
2019-05-05T15:54:31.608Z,1420
2019-05-05T15:57:35.882Z,2036
2019-05-05T16:00:30.911Z,2372
2019-05-05T16:03:32.350Z,3747
2019-05-05T16:06:31.270Z,5361
2019-05-05T16:09:36.039Z,5642
2019-05-05T16:12:39.618Z,5744
2019-05-05T16:16:37.069Z,5056
2019-05-05T16:19:03.134Z,4406
2019-05-05T16:21:43.848Z,3393
2019-05-05T16:24:33.575Z,2379
2019-05-05T16:27:37.517Z,1582
2019-05-05T16:30:31.415Z,1225
2019-05-05T16:33:31.041Z,946
2019-05-05T16:36:30.598Z,873
2019-05-05T16:39:33.568Z,744
2019-05-05T16:42:34.374Z,715
2019-05-05T16:45:33.705Z,579
2019-05-05T16:48:31.070Z,428
2019-05-05T16:51:37.278Z,382
2019-05-05T16:54:38.058Z,398
2019-05-05T16:57:36.712Z,368
2019-05-05T17:00:30.866Z,354
2019-05-05T17:03:30.532Z,372
2019-05-05T17:06:31.444Z,422
2019-05-05T17:09:31.284Z,564
2019-05-05T17:12:33.834Z,784
2019-05-05T17:15:49.560Z,1027
2019-05-05T17:18:38.459Z,967
2019-05-05T17:21:36.479Z,1010
2019-05-05T17:24:30.748Z,1112
2019-05-05T17:27:44.844Z,1183
2019-05-05T17:30:31.446Z,1079
2019-05-05T17:33:33.767Z,938
2019-05-05T17:36:30.835Z,804
2019-05-05T17:39:34.512Z,748
2019-05-05T17:44:42.041Z,851
2019-05-05T17:46:01.580Z,948
2019-05-05T17:48:35.935Z,962
2019-05-05T17:51:37.886Z,1002
2019-05-05T17:54:36.488Z,1128
2019-05-05T17:57:31.516Z,1343
2019-05-05T18:00:34.274Z,1373
2019-05-05T18:03:37.740Z,1207
2019-05-05T18:13:50.430Z,773
2019-05-05T18:16:17.893Z,587
2019-05-05T18:20:19.623Z,472
2019-05-05T18:27:37.097Z,340
2019-05-05T18:30:30.882Z,312
2019-05-05T18:33:31.213Z,271
2019-05-05T18:39:54.449Z,198
2019-05-05T18:43:35.340Z,188
2019-05-05T18:46:47.569Z,160
2019-05-05T18:49:20.245Z,134
2019-05-05T18:51:34.827Z,108
2019-05-05T18:54:35.039Z,89
2019-05-05T18:57:31.039Z,67
2019-05-05T19:00:57.919Z,46
2019-05-05T19:03:40.359Z,28
2019-05-05T19:07:09.702Z,17
2019-05-05T19:09:31.557Z,7
2019-05-05T19:12:31.591Z,3
2019-05-05T19:15:31.777Z,2
2019-05-05T19:18:31.120Z,2
2019-05-05T19:21:38.256Z,1
2019-05-05T19:24:36.524Z,0
2019-05-05T19:27:33.495Z,0
2019-05-05T19:30:35.590Z,0
2019-05-05T19:33:33.927Z,0
2019-05-05T19:36:30.995Z,0
2019-05-05T19:39:30.867Z,0
2019-05-05T19:42:37.613Z,0
2019-05-05T19:45:33.972Z,0
2019-05-05T19:48:33.843Z,0
2019-05-05T19:51:30.946Z,0
2019-05-05T19:54:31.118Z,0
2019-05-05T19:57:31.151Z,0
2019-05-05T20:00:31.951Z,0
2019-05-05T20:03:31.280Z,0
2019-05-05T20:06:31.890Z,0
2019-05-05T20:09:30.875Z,0
2019-05-05T20:12:43.828Z,0
2019-05-05T20:15:40.014Z,0
2019-05-05T20:18:31.011Z,0
2019-05-05T20:21:31.128Z,0
2019-05-05T20:24:31.040Z,0
2019-05-05T20:27:31.232Z,0
2019-05-05T20:30:31.302Z,0
2019-05-05T20:33:39.005Z,0
2019-05-05T20:36:34.526Z,0
2019-05-05T20:39:33.423Z,0
2019-05-05T20:42:33.756Z,0
2019-05-05T20:45:34.648Z,0
2019-05-05T20:48:30.271Z,0
2019-05-05T20:54:30.529Z,0
2019-05-05T20:57:31.273Z,0
2019-05-05T21:00:31.051Z,0
2019-05-05T21:03:30.854Z,0
2019-05-05T21:06:30.599Z,0
2019-05-05T21:09:31.748Z,0
2019-05-05T21:12:45.564Z,0
2019-05-05T21:15:30.434Z,0
2019-05-05T21:18:30.655Z,0
2019-05-05T21:21:34.372Z,0
2019-05-05T21:24:33.399Z,0
2019-05-05T21:27:31.428Z,0
2019-05-05T21:30:33.533Z,0
2019-05-05T21:33:30.469Z,0
2019-05-05T21:36:33.660Z,0
2019-05-05T21:39:34.767Z,0
2019-05-05T21:42:31.061Z,0
2019-05-05T21:45:30.969Z,0
2019-05-05T21:48:30.972Z,0
2019-05-05T21:51:42.388Z,0
2019-05-05T21:54:38.812Z,0
2019-05-05T21:57:47.302Z,0
2019-05-05T22:01:19.660Z,0
2019-05-05T22:03:37.736Z,0
2019-05-05T22:06:33.559Z,0
2019-05-05T22:09:36.691Z,0
2019-05-05T22:12:33.394Z,0
2019-05-05T22:15:30.861Z,0
2019-05-05T22:18:30.991Z,0
2019-05-05T22:21:43.813Z,0
2019-05-05T22:24:33.393Z,0
2019-05-05T22:27:31.666Z,0
2019-05-05T22:30:31.589Z,0
2019-05-05T22:33:31.500Z,0
2019-05-05T22:36:31.388Z,0
2019-05-05T22:39:33.792Z,0
2019-05-05T22:42:31.255Z,0
2019-05-05T22:45:31.346Z,0
2019-05-05T22:48:31.302Z,0
2019-05-05T22:51:30.906Z,0
2019-05-05T22:54:30.645Z,0
2019-05-05T22:57:31.382Z,0
2019-05-05T23:00:46.165Z,0
2019-05-05T23:03:38.687Z,0
2019-05-05T23:06:32.258Z,0
2019-05-05T23:09:31.224Z,0
2019-05-05T23:12:30.853Z,0
2019-05-05T23:15:37.241Z,0
2019-05-05T23:18:34.790Z,0
2019-05-05T23:21:39.978Z,0
2019-05-05T23:24:38.145Z,0
2019-05-05T23:28:04.110Z,0
2019-05-05T23:30:44.772Z,0
2019-05-05T23:33:30.956Z,0
2019-05-05T23:36:31.244Z,0
2019-05-05T23:39:30.893Z,0
2019-05-05T23:42:30.793Z,0
2019-05-05T23:45:30.356Z,0
2019-05-05T23:48:31.466Z,0
2019-05-05T23:51:31.228Z,0
2019-05-05T23:54:31.190Z,0
2019-05-05T23:57:31.019Z,0
